Airfield :
LOGIN :

Register | Disclaimer

   EN    FR    IT 

 










Legend :    VFR   Marginal VFR   IFR   Intensive IFR   Very Intensive IFR
Visi :
Ceiling :
>= 8 km
>= 3000ft
5 to 8 km
1000 to 3000 ft
1500m to 5 km
500 to 1000 ft
800 to 1500m
200 to 500 ft
< 800m
< 200 ft
Symbols :   Thunderstorms  Fog  Heavy snow  Heavy precipitations  Wind > 20 kt
SIGMETs :     Misc.  Thunderstorms  Icing  Turbulence  Mountain Waves  Volcanic Ashes







- Airport Elevation : 26 ft


ETNT - Wittmundhaven AB

CURRENT METAR :
  • 240820Z 30009KT 5000 -DZRA BR SCT005 BKN008 12/11 Q1021 GRN

EXPIRED METARs :
  • 240730Z 32011KT 5000 -DZRA BR FEW005 BKN008 BKN021 12/11 Q1021 GRN
  • 240720Z 32008KT 4500 -DZRA BR SCT005 BKN008 12/11 Q1021 GRN
  • 240620Z 30007KT 3800 -DZRA BR SCT003 BKN005 12/11 Q1021 YLO
  • 240601Z 30008KT 4000 -DZRA BR SCT004 BKN007 12/11 Q1021 GRN

TAF TAF ETNT
Valid from the 24 at 08:00 until the 24 at 17:00 UTC


240710Z 2408/2417 30010KT 8000 NSW SCT010 BKN015
TEMPO 2408/2412 31015KT 4000 -RADZ SCT003 BKN005
TEMPO 2412/2417 32012KT 8000 NSW BKN010 BKN025 BY ETGL
No reported NOTAMs for that airfield.



MET'MAP, your aeronautical weather chart ! - Copyright ORBIFLY December 2007 - Disclaimer

ORBIFLY MET'MAP TEAM :

Programming & Development : Alexandra Zaïnal
Concept & Development : Baudouin d'Aumeries
Co-Development & Prog : Marc-Olivier Méhu
Technical & hardware support : Manuel Goepfert

Contact : metmap@orbifly.com




SOURCES & CREDITS :

   NOAA